sensor_id;sensor_type;location;lat;lon;timestamp;pressure;altitude;pressure_sealevel;temperature;humidity
25510;BME280;13413;52.336;21.200;2023-01-27T00:02:10;100883.00;;;4.27;57.32
25510;BME280;13413;52.336;21.200;2023-01-27T00:05:04;100883.49;;;4.30;57.26
25510;BME280;13413;52.336;21.200;2023-01-27T00:07:59;100884.74;;;4.34;57.42
25510;BME280;13413;52.336;21.200;2023-01-27T00:10:58;100877.52;;;4.36;57.15
25510;BME280;13413;52.336;21.200;2023-01-27T00:13:52;100882.29;;;4.34;57.17
25510;BME280;13413;52.336;21.200;2023-01-27T00:16:46;100881.35;;;4.37;57.23
25510;BME280;13413;52.336;21.200;2023-01-27T00:19:40;100881.88;;;4.39;56.96
25510;BME280;13413;52.336;21.200;2023-01-27T00:22:34;100885.13;;;4.33;57.12
25510;BME280;13413;52.336;21.200;2023-01-27T00:25:27;100887.73;;;4.34;57.24
25510;BME280;13413;52.336;21.200;2023-01-27T00:28:21;100885.41;;;4.38;57.21
25510;BME280;13413;52.336;21.200;2023-01-27T00:31:16;100885.44;;;4.40;57.30
25510;BME280;13413;52.336;21.200;2023-01-27T00:34:11;100886.48;;;4.36;57.08
25510;BME280;13413;52.336;21.200;2023-01-27T00:37:05;100884.86;;;4.30;57.32
25510;BME280;13413;52.336;21.200;2023-01-27T00:39:59;100887.42;;;4.29;57.32
25510;BME280;13413;52.336;21.200;2023-01-27T00:42:53;100890.84;;;4.30;57.57
25510;BME280;13413;52.336;21.200;2023-01-27T00:45:48;100893.34;;;4.38;57.64
25510;BME280;13413;52.336;21.200;2023-01-27T00:48:42;100891.58;;;4.45;57.50
25510;BME280;13413;52.336;21.200;2023-01-27T00:51:36;100895.02;;;4.47;57.38
25510;BME280;13413;52.336;21.200;2023-01-27T00:54:30;100898.58;;;4.49;57.49
25510;BME280;13413;52.336;21.200;2023-01-27T00:57:24;100899.83;;;4.51;57.50
25510;BME280;13413;52.336;21.200;2023-01-27T01:00:19;100896.88;;;4.55;57.47
25510;BME280;13413;52.336;21.200;2023-01-27T01:03:11;100893.46;;;4.56;57.40
25510;BME280;13413;52.336;21.200;2023-01-27T01:06:07;100887.38;;;4.51;57.38
25510;BME280;13413;52.336;21.200;2023-01-27T01:09:03;100890.55;;;4.40;57.08
25510;BME280;13413;52.336;21.200;2023-01-27T01:11:57;100891.70;;;4.30;57.15
25510;BME280;13413;52.336;21.200;2023-01-27T01:14:51;100887.09;;;4.29;57.36
25510;BME280;13413;52.336;21.200;2023-01-27T01:17:45;100880.66;;;4.24;57.24
25510;BME280;13413;52.336;21.200;2023-01-27T01:20:42;100882.05;;;4.19;57.54
25510;BME280;13413;52.336;21.200;2023-01-27T01:23:38;100882.50;;;4.20;57.48
25510;BME280;13413;52.336;21.200;2023-01-27T01:26:33;100885.27;;;4.28;57.49
25510;BME280;13413;52.336;21.200;2023-01-27T01:29:27;100886.94;;;4.24;57.08
25510;BME280;13413;52.336;21.200;2023-01-27T01:32:22;100887.48;;;4.17;57.20
25510;BME280;13413;52.336;21.200;2023-01-27T01:35:16;100884.92;;;4.14;57.28
25510;BME280;13413;52.336;21.200;2023-01-27T01:38:09;100888.05;;;4.14;57.43
25510;BME280;13413;52.336;21.200;2023-01-27T01:44:25;100894.37;;;4.34;57.52
25510;BME280;13413;52.336;21.200;2023-01-27T01:47:19;100896.98;;;4.36;57.26
25510;BME280;13413;52.336;21.200;2023-01-27T01:53:07;100896.59;;;4.48;57.58
25510;BME280;13413;52.336;21.200;2023-01-27T01:56:07;100892.95;;;4.49;57.09
25510;BME280;13413;52.336;21.200;2023-01-27T01:59:04;100890.98;;;4.46;57.36
25510;BME280;13413;52.336;21.200;2023-01-27T02:02:02;100893.94;;;4.50;57.42
25510;BME280;13413;52.336;21.200;2023-01-27T02:05:00;100891.62;;;4.51;57.22
25510;BME280;13413;52.336;21.200;2023-01-27T02:07:58;100888.41;;;4.42;57.13
25510;BME280;13413;52.336;21.200;2023-01-27T02:10:54;100889.09;;;4.39;57.27
25510;BME280;13413;52.336;21.200;2023-01-27T02:13:51;100890.23;;;4.31;57.35
25510;BME280;13413;52.336;21.200;2023-01-27T02:16:45;100890.65;;;4.28;57.51
25510;BME280;13413;52.336;21.200;2023-01-27T02:19:44;100889.70;;;4.33;57.57
25510;BME280;13413;52.336;21.200;2023-01-27T02:22:49;100892.38;;;4.26;57.51
25510;BME280;13413;52.336;21.200;2023-01-27T02:28:50;100898.46;;;4.35;57.87
25510;BME280;13413;52.336;21.200;2023-01-27T02:32:00;100896.11;;;4.43;57.74
25510;BME280;13413;52.336;21.200;2023-01-27T02:35:15;100898.64;;;4.48;57.69
25510;BME280;13413;52.336;21.200;2023-01-27T02:38:11;100897.67;;;4.53;57.66
25510;BME280;13413;52.336;21.200;2023-01-27T02:41:13;100898.05;;;4.55;57.57
25510;BME280;13413;52.336;21.200;2023-01-27T02:44:09;100902.95;;;4.49;57.65
25510;BME280;13413;52.336;21.200;2023-01-27T02:47:02;100902.83;;;4.48;57.66
25510;BME280;13413;52.336;21.200;2023-01-27T02:50:10;100898.61;;;4.48;57.82
25510;BME280;13413;52.336;21.200;2023-01-27T02:53:04;100900.09;;;4.54;57.71
25510;BME280;13413;52.336;21.200;2023-01-27T02:55:57;100901.29;;;4.56;57.49
25510;BME280;13413;52.336;21.200;2023-01-27T02:58:51;100895.92;;;4.53;57.48
25510;BME280;13413;52.336;21.200;2023-01-27T03:01:45;100893.83;;;4.47;57.49
25510;BME280;13413;52.336;21.200;2023-01-27T03:04:40;100894.02;;;4.42;57.58
25510;BME280;13413;52.336;21.200;2023-01-27T03:07:33;100897.38;;;4.40;57.55
25510;BME280;13413;52.336;21.200;2023-01-27T03:10:27;100898.70;;;4.43;57.68
25510;BME280;13413;52.336;21.200;2023-01-27T03:13:23;100901.73;;;4.40;57.62
25510;BME280;13413;52.336;21.200;2023-01-27T03:16:17;100905.59;;;4.38;57.90
25510;BME280;13413;52.336;21.200;2023-01-27T03:19:12;100902.69;;;4.39;57.70
25510;BME280;13413;52.336;21.200;2023-01-27T03:22:06;100899.79;;;4.40;57.52
25510;BME280;13413;52.336;21.200;2023-01-27T03:24:59;100896.80;;;4.40;57.82
25510;BME280;13413;52.336;21.200;2023-01-27T03:27:54;100898.30;;;4.41;57.93
25510;BME280;13413;52.336;21.200;2023-01-27T03:30:49;100898.89;;;4.43;57.69
25510;BME280;13413;52.336;21.200;2023-01-27T03:33:42;100899.43;;;4.34;57.69
25510;BME280;13413;52.336;21.200;2023-01-27T03:36:36;100903.73;;;4.26;57.92
25510;BME280;13413;52.336;21.200;2023-01-27T03:39:31;100901.97;;;4.24;57.82
25510;BME280;13413;52.336;21.200;2023-01-27T03:42:25;100898.33;;;4.28;58.34
25510;BME280;13413;52.336;21.200;2023-01-27T03:45:20;100901.02;;;4.32;57.98
25510;BME280;13413;52.336;21.200;2023-01-27T03:48:14;100906.42;;;4.32;57.90
25510;BME280;13413;52.336;21.200;2023-01-27T03:51:09;100909.42;;;4.38;58.34
25510;BME280;13413;52.336;21.200;2023-01-27T03:54:02;100908.67;;;4.45;58.34
25510;BME280;13413;52.336;21.200;2023-01-27T03:56:54;100911.80;;;4.50;58.17
25510;BME280;13413;52.336;21.200;2023-01-27T04:05:45;100906.42;;;4.62;58.15
25510;BME280;13413;52.336;21.200;2023-01-27T04:08:39;100909.96;;;4.61;58.14
25510;BME280;13413;52.336;21.200;2023-01-27T04:11:35;100917.73;;;4.63;58.08
25510;BME280;13413;52.336;21.200;2023-01-27T04:14:31;100919.84;;;4.63;58.21
25510;BME280;13413;52.336;21.200;2023-01-27T04:17:25;100921.86;;;4.64;58.28
25510;BME280;13413;52.336;21.200;2023-01-27T04:20:19;100924.35;;;4.65;58.10
25510;BME280;13413;52.336;21.200;2023-01-27T04:23:26;100923.90;;;4.65;58.06
25510;BME280;13413;52.336;21.200;2023-01-27T04:26:20;100926.50;;;4.63;58.21
25510;BME280;13413;52.336;21.200;2023-01-27T04:29:17;100924.08;;;4.60;58.02
25510;BME280;13413;52.336;21.200;2023-01-27T04:32:12;100925.88;;;4.60;58.21
25510;BME280;13413;52.336;21.200;2023-01-27T04:35:07;100926.27;;;4.59;58.07
25510;BME280;13413;52.336;21.200;2023-01-27T04:38:01;100921.10;;;4.58;58.22
25510;BME280;13413;52.336;21.200;2023-01-27T04:40:55;100926.17;;;4.59;58.01
25510;BME280;13413;52.336;21.200;2023-01-27T04:43:49;100922.36;;;4.54;58.06
25510;BME280;13413;52.336;21.200;2023-01-27T04:46:43;100923.36;;;4.54;58.31
25510;BME280;13413;52.336;21.200;2023-01-27T04:49:37;100926.55;;;4.58;58.23
25510;BME280;13413;52.336;21.200;2023-01-27T04:52:31;100926.95;;;4.57;58.18
25510;BME280;13413;52.336;21.200;2023-01-27T04:55:25;100931.13;;;4.56;58.18
25510;BME280;13413;52.336;21.200;2023-01-27T04:58:32;100931.86;;;4.55;58.23
25510;BME280;13413;52.336;21.200;2023-01-27T05:01:26;100927.36;;;4.56;58.40
25510;BME280;13413;52.336;21.200;2023-01-27T05:04:37;100930.09;;;4.58;58.41
25510;BME280;13413;52.336;21.200;2023-01-27T05:07:31;100937.96;;;4.60;58.41
25510;BME280;13413;52.336;21.200;2023-01-27T05:10:25;100938.21;;;4.61;58.38
25510;BME280;13413;52.336;21.200;2023-01-27T05:13:19;100938.52;;;4.59;58.19
25510;BME280;13413;52.336;21.200;2023-01-27T05:16:14;100932.91;;;4.53;58.39
25510;BME280;13413;52.336;21.200;2023-01-27T05:19:10;100936.66;;;4.54;58.31
25510;BME280;13413;52.336;21.200;2023-01-27T05:22:03;100937.27;;;4.58;58.41
25510;BME280;13413;52.336;21.200;2023-01-27T05:24:57;100942.55;;;4.57;58.42
25510;BME280;13413;52.336;21.200;2023-01-27T05:27:54;100949.94;;;4.57;58.33
25510;BME280;13413;52.336;21.200;2023-01-27T05:30:48;100956.59;;;4.50;58.49
25510;BME280;13413;52.336;21.200;2023-01-27T05:33:43;100961.48;;;4.44;58.32
25510;BME280;13413;52.336;21.200;2023-01-27T05:36:37;100964.58;;;4.38;58.41
25510;BME280;13413;52.336;21.200;2023-01-27T05:39:31;100966.89;;;4.38;58.56
25510;BME280;13413;52.336;21.200;2023-01-27T05:45:40;100970.92;;;4.42;58.64
25510;BME280;13413;52.336;21.200;2023-01-27T05:48:36;100973.52;;;4.42;58.53
25510;BME280;13413;52.336;21.200;2023-01-27T05:51:33;100983.06;;;4.37;58.62
25510;BME280;13413;52.336;21.200;2023-01-27T05:57:34;100975.78;;;4.38;58.83
25510;BME280;13413;52.336;21.200;2023-01-27T06:00:28;100979.45;;;4.36;58.84
25510;BME280;13413;52.336;21.200;2023-01-27T06:03:43;100990.26;;;4.35;58.81
25510;BME280;13413;52.336;21.200;2023-01-27T06:06:37;100992.17;;;4.39;58.75
25510;BME280;13413;52.336;21.200;2023-01-27T06:09:31;100995.66;;;4.42;58.96
25510;BME280;13413;52.336;21.200;2023-01-27T06:12:25;100996.52;;;4.42;58.95
25510;BME280;13413;52.336;21.200;2023-01-27T06:15:19;101001.66;;;4.39;59.09
25510;BME280;13413;52.336;21.200;2023-01-27T06:18:11;101001.81;;;4.37;58.77
25510;BME280;13413;52.336;21.200;2023-01-27T06:30:05;101014.70;;;4.40;59.08
25510;BME280;13413;52.336;21.200;2023-01-27T06:32:59;101016.80;;;4.42;58.92
25510;BME280;13413;52.336;21.200;2023-01-27T06:36:01;101022.54;;;4.45;59.08
25510;BME280;13413;52.336;21.200;2023-01-27T06:38:55;101024.27;;;4.47;59.01
25510;BME280;13413;52.336;21.200;2023-01-27T06:41:51;101018.17;;;4.47;58.95
25510;BME280;13413;52.336;21.200;2023-01-27T06:44:45;101017.94;;;4.39;58.98
25510;BME280;13413;52.336;21.200;2023-01-27T06:47:56;101017.36;;;4.37;59.01
25510;BME280;13413;52.336;21.200;2023-01-27T06:50:52;101021.42;;;4.39;58.92
25510;BME280;13413;52.336;21.200;2023-01-27T06:53:46;101028.52;;;4.40;59.12
25510;BME280;13413;52.336;21.200;2023-01-27T06:56:40;101033.79;;;4.42;59.12
25510;BME280;13413;52.336;21.200;2023-01-27T06:59:34;101032.34;;;4.43;59.16
25510;BME280;13413;52.336;21.200;2023-01-27T07:02:28;101033.65;;;4.41;59.26
25510;BME280;13413;52.336;21.200;2023-01-27T07:05:22;101032.88;;;4.40;59.28
25510;BME280;13413;52.336;21.200;2023-01-27T07:08:16;101026.02;;;4.40;59.37
25510;BME280;13413;52.336;21.200;2023-01-27T07:11:09;101028.10;;;4.41;59.28
25510;BME280;13413;52.336;21.200;2023-01-27T07:14:03;101029.30;;;4.41;59.25
25510;BME280;13413;52.336;21.200;2023-01-27T07:16:57;101029.73;;;4.40;59.41
25510;BME280;13413;52.336;21.200;2023-01-27T07:19:51;101028.18;;;4.40;59.28
25510;BME280;13413;52.336;21.200;2023-01-27T07:22:45;101030.55;;;4.45;59.36
25510;BME280;13413;52.336;21.200;2023-01-27T07:25:39;101029.36;;;4.47;59.32
25510;BME280;13413;52.336;21.200;2023-01-27T07:28:34;101032.99;;;4.48;59.38
25510;BME280;13413;52.336;21.200;2023-01-27T07:31:27;101034.39;;;4.48;59.35
25510;BME280;13413;52.336;21.200;2023-01-27T07:34:21;101036.09;;;4.50;59.27
25510;BME280;13413;52.336;21.200;2023-01-27T07:37:15;101034.58;;;4.54;59.44
25510;BME280;13413;52.336;21.200;2023-01-27T07:40:12;101033.34;;;4.54;59.18
25510;BME280;13413;52.336;21.200;2023-01-27T07:43:07;101031.77;;;4.52;59.32
25510;BME280;13413;52.336;21.200;2023-01-27T07:46:00;101030.23;;;4.54;59.55
25510;BME280;13413;52.336;21.200;2023-01-27T07:48:54;101030.21;;;4.56;59.19
25510;BME280;13413;52.336;21.200;2023-01-27T07:51:48;101031.85;;;4.57;59.29
25510;BME280;13413;52.336;21.200;2023-01-27T07:54:42;101029.98;;;4.59;59.41
25510;BME280;13413;52.336;21.200;2023-01-27T07:57:37;101031.73;;;4.61;59.33
25510;BME280;13413;52.336;21.200;2023-01-27T08:00:31;101033.64;;;4.68;59.40
25510;BME280;13413;52.336;21.200;2023-01-27T08:03:26;101032.79;;;4.75;59.30
25510;BME280;13413;52.336;21.200;2023-01-27T08:06:20;101032.54;;;4.77;59.20
25510;BME280;13413;52.336;21.200;2023-01-27T08:09:14;101030.28;;;4.77;59.17
25510;BME280;13413;52.336;21.200;2023-01-27T08:12:08;101030.67;;;4.79;58.78
25510;BME280;13413;52.336;21.200;2023-01-27T08:15:03;101036.85;;;4.76;58.71
25510;BME280;13413;52.336;21.200;2023-01-27T08:17:58;101038.95;;;4.76;58.72
25510;BME280;13413;52.336;21.200;2023-01-27T08:20:51;101048.58;;;4.79;58.69
25510;BME280;13413;52.336;21.200;2023-01-27T08:23:46;101048.43;;;4.80;58.49
25510;BME280;13413;52.336;21.200;2023-01-27T08:26:39;101048.73;;;4.79;58.48
25510;BME280;13413;52.336;21.200;2023-01-27T08:29:34;101049.85;;;4.84;58.66
25510;BME280;13413;52.336;21.200;2023-01-27T08:32:27;101053.73;;;4.91;58.79
25510;BME280;13413;52.336;21.200;2023-01-27T08:35:22;101057.55;;;4.95;58.78
25510;BME280;13413;52.336;21.200;2023-01-27T08:38:17;101060.48;;;5.05;58.96
25510;BME280;13413;52.336;21.200;2023-01-27T08:41:11;101056.04;;;5.12;58.75
25510;BME280;13413;52.336;21.200;2023-01-27T08:49:44;101062.77;;;5.09;58.10
25510;BME280;13413;52.336;21.200;2023-01-27T08:52:38;101067.62;;;5.10;58.35
25510;BME280;13413;52.336;21.200;2023-01-27T08:55:33;101068.52;;;5.18;58.36
25510;BME280;13413;52.336;21.200;2023-01-27T08:58:27;101067.25;;;5.23;58.22
25510;BME280;13413;52.336;21.200;2023-01-27T09:01:21;101065.61;;;5.24;58.31
25510;BME280;13413;52.336;21.200;2023-01-27T09:04:15;101069.24;;;5.26;58.06
25510;BME280;13413;52.336;21.200;2023-01-27T09:07:09;101067.70;;;5.28;57.97
25510;BME280;13413;52.336;21.200;2023-01-27T09:10:23;101063.38;;;5.36;58.05
25510;BME280;13413;52.336;21.200;2023-01-27T09:13:17;101066.25;;;5.44;57.80
25510;BME280;13413;52.336;21.200;2023-01-27T09:16:11;101062.64;;;5.51;57.80
25510;BME280;13413;52.336;21.200;2023-01-27T09:19:05;101058.33;;;5.59;57.84
25510;BME280;13413;52.336;21.200;2023-01-27T09:21:59;101055.21;;;5.73;57.64
25510;BME280;13413;52.336;21.200;2023-01-27T09:24:53;101054.65;;;5.82;57.10
25510;BME280;13413;52.336;21.200;2023-01-27T09:27:47;101055.92;;;5.92;57.43
25510;BME280;13413;52.336;21.200;2023-01-27T09:30:41;101055.79;;;6.06;57.61
25510;BME280;13413;52.336;21.200;2023-01-27T09:33:35;101058.90;;;6.21;57.58
25510;BME280;13413;52.336;21.200;2023-01-27T09:36:29;101067.02;;;6.29;57.17
25510;BME280;13413;52.336;21.200;2023-01-27T09:39:25;101068.83;;;6.28;56.84
25510;BME280;13413;52.336;21.200;2023-01-27T09:42:39;101072.34;;;6.28;56.87
25510;BME280;13413;52.336;21.200;2023-01-27T09:45:43;101070.16;;;6.27;56.75
25510;BME280;13413;52.336;21.200;2023-01-27T09:48:59;101074.45;;;6.20;56.01
25510;BME280;13413;52.336;21.200;2023-01-27T09:52:11;101078.30;;;6.14;56.37
25510;BME280;13413;52.336;21.200;2023-01-27T09:55:17;101074.42;;;6.08;56.25
25510;BME280;13413;52.336;21.200;2023-01-27T09:58:21;101072.71;;;6.09;56.33
25510;BME280;13413;52.336;21.200;2023-01-27T10:01:26;101072.54;;;6.16;56.32
25510;BME280;13413;52.336;21.200;2023-01-27T10:08:06;101065.98;;;6.17;56.19
25510;BME280;13413;52.336;21.200;2023-01-27T10:14:28;101069.47;;;6.17;56.05
25510;BME280;13413;52.336;21.200;2023-01-27T10:17:33;101066.55;;;6.16;55.85
25510;BME280;13413;52.336;21.200;2023-01-27T10:20:37;101069.13;;;6.13;55.61
25510;BME280;13413;52.336;21.200;2023-01-27T10:23:42;101073.47;;;6.07;55.40
25510;BME280;13413;52.336;21.200;2023-01-27T10:26:45;101075.56;;;6.07;55.97
25510;BME280;13413;52.336;21.200;2023-01-27T10:29:45;101079.79;;;6.13;56.00
25510;BME280;13413;52.336;21.200;2023-01-27T10:32:43;101076.90;;;6.14;55.95
25510;BME280;13413;52.336;21.200;2023-01-27T10:35:43;101083.05;;;6.16;55.94
25510;BME280;13413;52.336;21.200;2023-01-27T10:38:42;101087.08;;;6.14;55.90
25510;BME280;13413;52.336;21.200;2023-01-27T10:41:45;101096.25;;;6.14;56.06
25510;BME280;13413;52.336;21.200;2023-01-27T10:44:57;101092.11;;;6.17;56.04
25510;BME280;13413;52.336;21.200;2023-01-27T10:48:04;101094.05;;;6.19;56.11
25510;BME280;13413;52.336;21.200;2023-01-27T10:51:08;101100.80;;;6.18;56.10
25510;BME280;13413;52.336;21.200;2023-01-27T10:54:06;101100.06;;;6.10;55.92
25510;BME280;13413;52.336;21.200;2023-01-27T10:57:03;101105.45;;;6.07;55.85
25510;BME280;13413;52.336;21.200;2023-01-27T10:59:59;101104.23;;;6.02;55.70
25510;BME280;13413;52.336;21.200;2023-01-27T11:10:34;101096.73;;;6.06;56.20
25510;BME280;13413;52.336;21.200;2023-01-27T11:13:30;101087.92;;;6.08;56.22
25510;BME280;13413;52.336;21.200;2023-01-27T11:16:47;101086.60;;;6.09;56.14
25510;BME280;13413;52.336;21.200;2023-01-27T11:19:46;101082.88;;;6.08;56.06
25510;BME280;13413;52.336;21.200;2023-01-27T11:22:49;101077.27;;;6.08;55.78
25510;BME280;13413;52.336;21.200;2023-01-27T11:25:49;101078.04;;;6.04;56.11
25510;BME280;13413;52.336;21.200;2023-01-27T11:28:50;101075.54;;;6.05;56.15
25510;BME280;13413;52.336;21.200;2023-01-27T11:31:52;101075.81;;;6.06;56.35
25510;BME280;13413;52.336;21.200;2023-01-27T11:34:56;101071.52;;;6.09;56.36
25510;BME280;13413;52.336;21.200;2023-01-27T11:37:53;101075.89;;;6.11;56.24
25510;BME280;13413;52.336;21.200;2023-01-27T11:40:47;101075.92;;;6.09;56.29
25510;BME280;13413;52.336;21.200;2023-01-27T11:43:43;101074.67;;;6.11;56.36
25510;BME280;13413;52.336;21.200;2023-01-27T11:46:37;101072.30;;;6.10;56.38
25510;BME280;13413;52.336;21.200;2023-01-27T11:49:34;101069.48;;;6.15;56.64
25510;BME280;13413;52.336;21.200;2023-01-27T11:52:29;101068.95;;;6.14;56.22
25510;BME280;13413;52.336;21.200;2023-01-27T11:55:29;101066.90;;;6.12;56.33
25510;BME280;13413;52.336;21.200;2023-01-27T11:58:29;101068.45;;;6.04;56.49
25510;BME280;13413;52.336;21.200;2023-01-27T12:01:27;101073.01;;;6.06;56.63
25510;BME280;13413;52.336;21.200;2023-01-27T12:04:43;101069.53;;;6.05;56.85
25510;BME280;13413;52.336;21.200;2023-01-27T12:07:50;101067.64;;;6.01;56.84
25510;BME280;13413;52.336;21.200;2023-01-27T12:10:47;101066.36;;;5.95;57.09
25510;BME280;13413;52.336;21.200;2023-01-27T12:13:48;101071.69;;;5.94;57.28
25510;BME280;13413;52.336;21.200;2023-01-27T12:16:47;101069.66;;;5.96;57.33
25510;BME280;13413;52.336;21.200;2023-01-27T12:19:43;101068.14;;;5.97;57.47
25510;BME280;13413;52.336;21.200;2023-01-27T12:22:37;101073.96;;;5.97;57.65
25510;BME280;13413;52.336;21.200;2023-01-27T12:25:42;101076.27;;;5.94;57.65
25510;BME280;13413;52.336;21.200;2023-01-27T12:28:40;101070.74;;;5.91;57.75
25510;BME280;13413;52.336;21.200;2023-01-27T12:31:44;101065.44;;;5.94;57.88
25510;BME280;13413;52.336;21.200;2023-01-27T12:34:42;101068.70;;;6.01;57.66
25510;BME280;13413;52.336;21.200;2023-01-27T12:37:39;101068.79;;;5.98;57.69
25510;BME280;13413;52.336;21.200;2023-01-27T12:40:33;101074.65;;;5.97;57.60
25510;BME280;13413;52.336;21.200;2023-01-27T12:43:51;101074.80;;;5.95;57.82
25510;BME280;13413;52.336;21.200;2023-01-27T12:46:58;101073.17;;;5.93;57.93
25510;BME280;13413;52.336;21.200;2023-01-27T12:50:17;101071.05;;;5.92;58.02
25510;BME280;13413;52.336;21.200;2023-01-27T12:53:15;101070.52;;;5.88;57.95
25510;BME280;13413;52.336;21.200;2023-01-27T12:56:13;101067.77;;;5.83;58.14
25510;BME280;13413;52.336;21.200;2023-01-27T12:59:13;101069.96;;;5.83;58.54
25510;BME280;13413;52.336;21.200;2023-01-27T13:02:17;101074.39;;;5.83;58.66
25510;BME280;13413;52.336;21.200;2023-01-27T13:05:16;101074.90;;;5.88;58.82
25510;BME280;13413;52.336;21.200;2023-01-27T13:08:15;101074.32;;;5.93;58.84
25510;BME280;13413;52.336;21.200;2023-01-27T13:11:10;101076.54;;;5.93;58.85
25510;BME280;13413;52.336;21.200;2023-01-27T13:14:12;101075.69;;;5.95;58.85
25510;BME280;13413;52.336;21.200;2023-01-27T13:17:28;101077.15;;;6.00;58.91
25510;BME280;13413;52.336;21.200;2023-01-27T13:20:25;101075.21;;;5.96;58.87
25510;BME280;13413;52.336;21.200;2023-01-27T13:23:19;101075.63;;;5.92;58.88
25510;BME280;13413;52.336;21.200;2023-01-27T13:31:55;101083.09;;;5.90;59.06
25510;BME280;13413;52.336;21.200;2023-01-27T13:34:53;101084.44;;;5.87;59.16
25510;BME280;13413;52.336;21.200;2023-01-27T13:38:01;101082.08;;;5.88;59.06
25510;BME280;13413;52.336;21.200;2023-01-27T13:40:58;101088.52;;;5.89;59.00
25510;BME280;13413;52.336;21.200;2023-01-27T13:43:52;101089.85;;;5.87;58.97
25510;BME280;13413;52.336;21.200;2023-01-27T13:46:50;101089.84;;;5.81;59.24
25510;BME280;13413;52.336;21.200;2023-01-27T13:50:15;101091.41;;;5.71;59.28
25510;BME280;13413;52.336;21.200;2023-01-27T13:53:13;101093.21;;;5.64;59.52
25510;BME280;13413;52.336;21.200;2023-01-27T13:56:23;101091.17;;;5.65;59.70
25510;BME280;13413;52.336;21.200;2023-01-27T13:59:34;101089.30;;;5.71;59.56
25510;BME280;13413;52.336;21.200;2023-01-27T14:06:13;101090.45;;;5.76;59.57
25510;BME280;13413;52.336;21.200;2023-01-27T14:09:18;101094.40;;;5.77;59.82
25510;BME280;13413;52.336;21.200;2023-01-27T14:12:27;101095.05;;;5.75;59.75
25510;BME280;13413;52.336;21.200;2023-01-27T14:15:31;101094.73;;;5.66;59.82
25510;BME280;13413;52.336;21.200;2023-01-27T14:18:32;101094.10;;;5.59;59.87
25510;BME280;13413;52.336;21.200;2023-01-27T14:21:33;101090.27;;;5.54;59.99
25510;BME280;13413;52.336;21.200;2023-01-27T14:24:35;101092.34;;;5.52;60.08
25510;BME280;13413;52.336;21.200;2023-01-27T14:27:36;101095.51;;;5.48;60.22
25510;BME280;13413;52.336;21.200;2023-01-27T14:30:36;101095.52;;;5.44;60.23
25510;BME280;13413;52.336;21.200;2023-01-27T14:33:47;101092.33;;;5.42;60.31
25510;BME280;13413;52.336;21.200;2023-01-27T14:36:50;101094.17;;;5.41;60.46
25510;BME280;13413;52.336;21.200;2023-01-27T14:39:56;101094.65;;;5.40;60.36
25510;BME280;13413;52.336;21.200;2023-01-27T14:43:09;101092.94;;;5.37;60.36
25510;BME280;13413;52.336;21.200;2023-01-27T14:46:14;101094.45;;;5.35;60.52
25510;BME280;13413;52.336;21.200;2023-01-27T14:49:16;101098.35;;;5.35;60.70
25510;BME280;13413;52.336;21.200;2023-01-27T14:52:27;101096.39;;;5.38;60.65
25510;BME280;13413;52.336;21.200;2023-01-27T14:55:33;101095.55;;;5.35;60.77
25510;BME280;13413;52.336;21.200;2023-01-27T14:58:45;101087.89;;;5.32;60.66
25510;BME280;13413;52.336;21.200;2023-01-27T15:01:48;101096.52;;;5.32;60.80
25510;BME280;13413;52.336;21.200;2023-01-27T15:04:53;101099.56;;;5.27;60.74
25510;BME280;13413;52.336;21.200;2023-01-27T15:07:58;101108.02;;;5.24;60.90
25510;BME280;13413;52.336;21.200;2023-01-27T15:10:55;101109.08;;;5.33;60.75
25510;BME280;13413;52.336;21.200;2023-01-27T15:14:08;101107.94;;;5.34;60.74
25510;BME280;13413;52.336;21.200;2023-01-27T15:17:30;101110.98;;;5.29;60.58
25510;BME280;13413;52.336;21.200;2023-01-27T15:24:17;101112.63;;;5.21;60.79
25510;BME280;13413;52.336;21.200;2023-01-27T15:27:15;101114.14;;;5.13;61.02
25510;BME280;13413;52.336;21.200;2023-01-27T15:30:22;101113.58;;;5.13;60.89
25510;BME280;13413;52.336;21.200;2023-01-27T15:33:51;101113.65;;;5.10;61.07
25510;BME280;13413;52.336;21.200;2023-01-27T15:37:01;101116.77;;;5.02;61.27
25510;BME280;13413;52.336;21.200;2023-01-27T15:40:08;101117.98;;;5.02;61.39
25510;BME280;13413;52.336;21.200;2023-01-27T15:43:11;101121.84;;;5.05;61.29
25510;BME280;13413;52.336;21.200;2023-01-27T15:46:18;101127.92;;;5.05;61.19
25510;BME280;13413;52.336;21.200;2023-01-27T15:54:48;101128.44;;;5.08;61.38
25510;BME280;13413;52.336;21.200;2023-01-27T15:57:43;101131.35;;;5.04;61.52
25510;BME280;13413;52.336;21.200;2023-01-27T16:00:57;101129.56;;;4.98;61.48
25510;BME280;13413;52.336;21.200;2023-01-27T16:04:01;101129.42;;;5.02;61.43
25510;BME280;13413;52.336;21.200;2023-01-27T16:06:59;101131.86;;;5.04;61.46
25510;BME280;13413;52.336;21.200;2023-01-27T16:09:54;101130.77;;;5.02;61.52
25510;BME280;13413;52.336;21.200;2023-01-27T16:12:49;101139.36;;;5.05;61.66
25510;BME280;13413;52.336;21.200;2023-01-27T16:16:31;101139.84;;;4.99;61.51
25510;BME280;13413;52.336;21.200;2023-01-27T16:19:28;101136.80;;;4.97;61.59
25510;BME280;13413;52.336;21.200;2023-01-27T16:22:23;101141.42;;;4.96;61.61
25510;BME280;13413;52.336;21.200;2023-01-27T16:25:25;101143.36;;;4.94;61.73
25510;BME280;13413;52.336;21.200;2023-01-27T16:28:25;101148.77;;;4.95;61.75
25510;BME280;13413;52.336;21.200;2023-01-27T16:31:23;101146.05;;;4.93;61.97
25510;BME280;13413;52.336;21.200;2023-01-27T16:34:22;101154.82;;;4.93;61.93
25510;BME280;13413;52.336;21.200;2023-01-27T16:37:23;101148.33;;;4.95;61.99
25510;BME280;13413;52.336;21.200;2023-01-27T16:40:22;101148.67;;;4.96;62.08
25510;BME280;13413;52.336;21.200;2023-01-27T16:43:18;101150.39;;;4.96;61.97